Terminal Aerodrome Forecast
Issued by NWS

Home | Current Version | Previous Version | Text Only | Print | Product List | Glossary On
Versions: 1 2 3 4 5 6 7 8 9 10 11 12 13 14 15 16 17
000
FTAK31 PAJN 031126
TAFAJN
TAF
PAJN 031126Z 0312/0412 VRB03KT P6SM VCSH FEW015 BKN080
      TEMPO 0312/0316 6SM BR FEW005
     FM031800 25012KT P6SM VCSH SCT060 BKN100
     FM040400 VRB03KT P6SM SCT100 SCT200=

USA.gov is the U.S. government's official web portal to all federal, state and local government web resources and services.